sensor_id;sensor_type;location;lat;lon;timestamp;pressure;altitude;pressure_sealevel;temperature;humidity
12973;BME280;6551;51.056;9.466;2024-03-07T00:00:12;98366.50;;;12.07;53.98
12973;BME280;6551;51.056;9.466;2024-03-07T00:02:51;98367.91;;;12.09;53.94
12973;BME280;6551;51.056;9.466;2024-03-07T00:05:20;98365.00;;;12.17;53.85
12973;BME280;6551;51.056;9.466;2024-03-07T00:07:46;98361.94;;;12.20;53.65
12973;BME280;6551;51.056;9.466;2024-03-07T00:10:13;98367.91;;;12.09;53.71
12973;BME280;6551;51.056;9.466;2024-03-07T00:12:40;98370.56;;;12.16;53.75
12973;BME280;6551;51.056;9.466;2024-03-07T00:15:09;98373.78;;;12.31;53.74
12973;BME280;6551;51.056;9.466;2024-03-07T00:17:37;98367.47;;;12.19;53.54
12973;BME280;6551;51.056;9.466;2024-03-07T00:20:03;98377.28;;;12.31;53.49
12973;BME280;6551;51.056;9.466;2024-03-07T00:22:30;98374.00;;;12.29;53.73
12973;BME280;6551;51.056;9.466;2024-03-07T00:24:56;98377.06;;;12.33;53.81
12973;BME280;6551;51.056;9.466;2024-03-07T00:27:23;98372.94;;;12.37;54.10
12973;BME280;6551;51.056;9.466;2024-03-07T00:29:49;98374.19;;;12.35;54.16
12973;BME280;6551;51.056;9.466;2024-03-07T00:32:23;98371.75;;;12.26;54.10
12973;BME280;6551;51.056;9.466;2024-03-07T00:34:50;98369.28;;;12.25;54.01
12973;BME280;6551;51.056;9.466;2024-03-07T00:37:16;98366.66;;;12.18;54.24
12973;BME280;6551;51.056;9.466;2024-03-07T00:39:42;98367.47;;;12.19;54.17
12973;BME280;6551;51.056;9.466;2024-03-07T00:42:08;98370.59;;;12.09;54.64
12973;BME280;6551;51.056;9.466;2024-03-07T00:44:34;98364.47;;;11.96;54.83
12973;BME280;6551;51.056;9.466;2024-03-07T00:47:01;98372.31;;;11.91;55.27
12973;BME280;6551;51.056;9.466;2024-03-07T00:49:30;98365.72;;;11.87;55.26
12973;BME280;6551;51.056;9.466;2024-03-07T00:51:58;98362.22;;;11.93;55.18
12973;BME280;6551;51.056;9.466;2024-03-07T00:54:24;98362.47;;;11.78;55.21
12973;BME280;6551;51.056;9.466;2024-03-07T00:56:50;98357.34;;;11.70;54.96
12973;BME280;6551;51.056;9.466;2024-03-07T00:59:17;98356.72;;;11.68;55.28
12973;BME280;6551;51.056;9.466;2024-03-07T01:01:43;98359.19;;;11.63;55.05
12973;BME280;6551;51.056;9.466;2024-03-07T01:04:09;98352.03;;;11.57;55.28
12973;BME280;6551;51.056;9.466;2024-03-07T01:06:35;98353.03;;;11.62;55.06
12973;BME280;6551;51.056;9.466;2024-03-07T01:09:06;98346.91;;;11.42;55.36
12973;BME280;6551;51.056;9.466;2024-03-07T01:11:39;98338.94;;;11.29;55.47
12973;BME280;6551;51.056;9.466;2024-03-07T01:14:05;98340.34;;;11.25;55.62
12973;BME280;6551;51.056;9.466;2024-03-07T01:16:31;98341.78;;;11.28;55.66
12973;BME280;6551;51.056;9.466;2024-03-07T01:18:58;98343.25;;;11.24;55.44
12973;BME280;6551;51.056;9.466;2024-03-07T01:21:24;98336.88;;;11.18;55.51
12973;BME280;6551;51.056;9.466;2024-03-07T01:23:52;98339.75;;;11.10;55.67
12973;BME280;6551;51.056;9.466;2024-03-07T01:26:19;98331.16;;;11.01;55.78
12973;BME280;6551;51.056;9.466;2024-03-07T01:28:45;98331.75;;;10.90;55.77
12973;BME280;6551;51.056;9.466;2024-03-07T01:31:10;98331.34;;;10.87;55.81
12973;BME280;6551;51.056;9.466;2024-03-07T01:33:36;98340.56;;;10.84;56.03
12973;BME280;6551;51.056;9.466;2024-03-07T01:36:02;98331.53;;;10.79;55.86
12973;BME280;6551;51.056;9.466;2024-03-07T01:38:28;98340.75;;;10.70;55.77
12973;BME280;6551;51.056;9.466;2024-03-07T01:40:53;98337.03;;;10.51;55.63
12973;BME280;6551;51.056;9.466;2024-03-07T01:43:20;98333.94;;;10.41;55.82
12973;BME280;6551;51.056;9.466;2024-03-07T01:45:46;98330.81;;;10.31;56.13
12973;BME280;6551;51.056;9.466;2024-03-07T01:48:18;98327.13;;;10.25;56.58
12973;BME280;6551;51.056;9.466;2024-03-07T01:50:49;98331.19;;;10.15;56.42
12973;BME280;6551;51.056;9.466;2024-03-07T01:53:15;98329.09;;;10.10;56.43
12973;BME280;6551;51.056;9.466;2024-03-07T01:55:42;98323.97;;;10.09;56.91
12973;BME280;6551;51.056;9.466;2024-03-07T01:58:11;98324.97;;;10.01;57.12
12973;BME280;6551;51.056;9.466;2024-03-07T02:00:40;98327.38;;;9.89;57.29
12973;BME280;6551;51.056;9.466;2024-03-07T02:03:05;98325.28;;;9.78;56.92
12973;BME280;6551;51.056;9.466;2024-03-07T02:05:34;98315.63;;;9.77;57.31
12973;BME280;6551;51.056;9.466;2024-03-07T02:08:00;98320.16;;;9.77;57.39
12973;BME280;6551;51.056;9.466;2024-03-07T02:10:27;98319.09;;;9.71;57.61
12973;BME280;6551;51.056;9.466;2024-03-07T02:12:53;98320.94;;;9.71;57.69
12973;BME280;6551;51.056;9.466;2024-03-07T02:15:20;98324.03;;;9.74;58.32
12973;BME280;6551;51.056;9.466;2024-03-07T02:17:46;98316.25;;;9.73;58.03
12973;BME280;6551;51.056;9.466;2024-03-07T02:20:12;98315.22;;;9.74;57.94
12973;BME280;6551;51.056;9.466;2024-03-07T02:22:38;98318.13;;;9.79;57.98
12973;BME280;6551;51.056;9.466;2024-03-07T02:25:05;98318.34;;;9.84;57.61
12973;BME280;6551;51.056;9.466;2024-03-07T02:27:32;98316.47;;;9.78;57.59
12973;BME280;6551;51.056;9.466;2024-03-07T02:29:57;98316.28;;;9.79;57.57
12973;BME280;6551;51.056;9.466;2024-03-07T02:32:23;98315.06;;;9.82;57.75
12973;BME280;6551;51.056;9.466;2024-03-07T02:34:49;98315.63;;;9.77;57.64
12973;BME280;6551;51.056;9.466;2024-03-07T02:37:15;98305.44;;;9.81;57.70
12973;BME280;6551;51.056;9.466;2024-03-07T02:39:41;98305.66;;;9.86;57.35
12973;BME280;6551;51.056;9.466;2024-03-07T02:42:08;98314.44;;;9.80;57.00
12973;BME280;6551;51.056;9.466;2024-03-07T02:44:33;98298.84;;;9.70;57.44
12973;BME280;6551;51.056;9.466;2024-03-07T02:47:00;98297.78;;;9.65;57.41
12973;BME280;6551;51.056;9.466;2024-03-07T02:49:29;98299.84;;;9.63;57.68
12973;BME280;6551;51.056;9.466;2024-03-07T02:51:55;98302.72;;;9.33;58.27
12973;BME280;6551;51.056;9.466;2024-03-07T02:54:21;98307.09;;;9.41;58.30
12973;BME280;6551;51.056;9.466;2024-03-07T02:56:47;98302.81;;;9.47;57.93
12973;BME280;6551;51.056;9.466;2024-03-07T02:59:13;98297.25;;;9.41;58.19
12973;BME280;6551;51.056;9.466;2024-03-07T03:01:40;98303.00;;;9.45;57.90
12973;BME280;6551;51.056;9.466;2024-03-07T03:04:06;98301.28;;;9.31;57.87
12973;BME280;6551;51.056;9.466;2024-03-07T03:06:32;98298.81;;;9.29;58.12
12973;BME280;6551;51.056;9.466;2024-03-07T03:08:57;98295.97;;;9.31;58.56
12973;BME280;6551;51.056;9.466;2024-03-07T03:11:24;98295.56;;;9.34;57.99
12973;BME280;6551;51.056;9.466;2024-03-07T03:13:51;98296.16;;;9.29;58.32
12973;BME280;6551;51.056;9.466;2024-03-07T03:16:19;98302.31;;;9.30;57.98
12973;BME280;6551;51.056;9.466;2024-03-07T03:18:44;98291.00;;;9.21;58.50
12973;BME280;6551;51.056;9.466;2024-03-07T03:21:10;98296.72;;;9.25;58.47
12973;BME280;6551;51.056;9.466;2024-03-07T03:23:37;98287.84;;;9.39;58.34
12973;BME280;6551;51.056;9.466;2024-03-07T03:26:03;98292.38;;;9.45;58.54
12973;BME280;6551;51.056;9.466;2024-03-07T03:28:29;98290.16;;;9.49;58.85
12973;BME280;6551;51.056;9.466;2024-03-07T03:30:55;98286.88;;;9.53;58.73
12973;BME280;6551;51.056;9.466;2024-03-07T03:33:20;98290.41;;;9.60;58.61
12973;BME280;6551;51.056;9.466;2024-03-07T03:35:47;98293.56;;;9.77;58.64
12973;BME280;6551;51.056;9.466;2024-03-07T03:38:13;98287.28;;;9.91;58.27
12973;BME280;6551;51.056;9.466;2024-03-07T03:40:38;98280.75;;;10.00;58.27
12973;BME280;6551;51.056;9.466;2024-03-07T03:43:04;98278.19;;;10.13;58.00
12973;BME280;6551;51.056;9.466;2024-03-07T03:45:30;98279.00;;;10.20;57.83
12973;BME280;6551;51.056;9.466;2024-03-07T03:48:00;98271.88;;;10.40;57.67
12973;BME280;6551;51.056;9.466;2024-03-07T03:50:26;98275.38;;;10.47;57.62
12973;BME280;6551;51.056;9.466;2024-03-07T03:52:53;98283.97;;;10.56;56.72
12973;BME280;6551;51.056;9.466;2024-03-07T03:55:18;98282.75;;;10.58;56.67
12973;BME280;6551;51.056;9.466;2024-03-07T03:57:45;98274.97;;;10.57;56.50
12973;BME280;6551;51.056;9.466;2024-03-07T04:00:13;98277.03;;;10.68;56.26
12973;BME280;6551;51.056;9.466;2024-03-07T04:02:43;98277.44;;;10.78;56.14
12973;BME280;6551;51.056;9.466;2024-03-07T04:05:11;98278.25;;;10.79;56.25
12973;BME280;6551;51.056;9.466;2024-03-07T04:07:40;98274.19;;;10.83;56.33
12973;BME280;6551;51.056;9.466;2024-03-07T04:10:12;98270.69;;;10.82;55.70
12973;BME280;6551;51.056;9.466;2024-03-07T04:12:40;98270.06;;;10.93;55.93
12973;BME280;6551;51.056;9.466;2024-03-07T04:15:11;98265.34;;;11.02;55.72
12973;BME280;6551;51.056;9.466;2024-03-07T04:17:37;98268.44;;;10.99;55.38
12973;BME280;6551;51.056;9.466;2024-03-07T04:20:06;98272.09;;;11.11;55.55
12973;BME280;6551;51.056;9.466;2024-03-07T04:22:33;98271.06;;;11.12;55.48
12973;BME280;6551;51.056;9.466;2024-03-07T04:25:00;98263.31;;;11.10;55.16
12973;BME280;6551;51.056;9.466;2024-03-07T04:27:26;98262.25;;;11.11;55.15
12973;BME280;6551;51.056;9.466;2024-03-07T04:29:52;98265.34;;;11.15;55.10
12973;BME280;6551;51.056;9.466;2024-03-07T04:32:18;98254.06;;;11.13;55.05
12973;BME280;6551;51.056;9.466;2024-03-07T04:34:44;98256.72;;;11.13;54.95
12973;BME280;6551;51.056;9.466;2024-03-07T04:37:10;98255.91;;;11.12;55.37
12973;BME280;6551;51.056;9.466;2024-03-07T04:39:40;98257.75;;;11.19;55.36
12973;BME280;6551;51.056;9.466;2024-03-07T04:42:08;98259.38;;;11.20;55.56
12973;BME280;6551;51.056;9.466;2024-03-07T04:44:36;98253.81;;;11.28;55.28
12973;BME280;6551;51.056;9.466;2024-03-07T04:47:03;98249.13;;;11.23;55.19
12973;BME280;6551;51.056;9.466;2024-03-07T04:49:31;98249.94;;;11.24;55.43
12973;BME280;6551;51.056;9.466;2024-03-07T04:52:00;98250.97;;;11.29;55.97
12973;BME280;6551;51.056;9.466;2024-03-07T04:54:29;98248.69;;;11.33;55.58
12973;BME280;6551;51.056;9.466;2024-03-07T04:56:55;98259.16;;;11.34;55.54
12973;BME280;6551;51.056;9.466;2024-03-07T04:59:22;98260.16;;;11.40;55.61
12973;BME280;6551;51.056;9.466;2024-03-07T05:01:49;98258.72;;;11.37;55.24
12973;BME280;6551;51.056;9.466;2024-03-07T05:04:16;98259.56;;;11.38;55.34
12973;BME280;6551;51.056;9.466;2024-03-07T05:06:42;98259.75;;;11.43;55.38
12973;BME280;6551;51.056;9.466;2024-03-07T05:09:10;98260.94;;;11.47;55.04
12973;BME280;6551;51.056;9.466;2024-03-07T05:11:50;98258.50;;;11.45;55.42
12973;BME280;6551;51.056;9.466;2024-03-07T05:14:18;98258.91;;;11.42;55.36
12973;BME280;6551;51.056;9.466;2024-03-07T05:16:44;98265.50;;;11.40;55.02
12973;BME280;6551;51.056;9.466;2024-03-07T05:19:10;98260.34;;;11.45;54.90
12973;BME280;6551;51.056;9.466;2024-03-07T05:21:36;98263.41;;;11.42;55.25
12973;BME280;6551;51.056;9.466;2024-03-07T05:24:07;98260.75;;;11.42;55.07
12973;BME280;6551;51.056;9.466;2024-03-07T05:26:35;98248.47;;;11.41;55.12
12973;BME280;6551;51.056;9.466;2024-03-07T05:29:09;98256.25;;;11.49;55.34
12973;BME280;6551;51.056;9.466;2024-03-07T05:31:37;98257.25;;;11.48;55.38
12973;BME280;6551;51.056;9.466;2024-03-07T05:34:04;98261.34;;;11.50;55.33
12973;BME280;6551;51.056;9.466;2024-03-07T05:36:37;98260.16;;;11.46;55.20
12973;BME280;6551;51.056;9.466;2024-03-07T05:39:14;98253.16;;;11.39;55.43
12973;BME280;6551;51.056;9.466;2024-03-07T05:41:41;98260.38;;;11.32;55.15
12973;BME280;6551;51.056;9.466;2024-03-07T05:44:07;98259.78;;;11.30;55.37
12973;BME280;6551;51.056;9.466;2024-03-07T05:46:36;98263.22;;;11.37;55.62
12973;BME280;6551;51.056;9.466;2024-03-07T05:49:10;98267.91;;;11.48;55.35
12973;BME280;6551;51.056;9.466;2024-03-07T05:51:36;98264.00;;;11.57;55.22
12973;BME280;6551;51.056;9.466;2024-03-07T05:54:03;98267.47;;;11.64;55.05
12973;BME280;6551;51.056;9.466;2024-03-07T05:56:35;98265.63;;;11.64;54.95
12973;BME280;6551;51.056;9.466;2024-03-07T05:59:06;98267.03;;;11.67;55.09
12973;BME280;6551;51.056;9.466;2024-03-07T06:01:36;98274.22;;;11.66;55.17
12973;BME280;6551;51.056;9.466;2024-03-07T06:04:05;98275.06;;;11.73;55.18
12973;BME280;6551;51.056;9.466;2024-03-07T06:06:35;98271.34;;;11.74;55.13
12973;BME280;6551;51.056;9.466;2024-03-07T06:09:03;98269.72;;;11.73;54.87
12973;BME280;6551;51.056;9.466;2024-03-07T06:11:40;98274.25;;;11.73;55.34
12973;BME280;6551;51.056;9.466;2024-03-07T06:14:10;98279.34;;;11.68;55.59
12973;BME280;6551;51.056;9.466;2024-03-07T06:16:39;98269.13;;;11.71;55.47
12973;BME280;6551;51.056;9.466;2024-03-07T06:19:06;98271.78;;;11.65;55.34
12973;BME280;6551;51.056;9.466;2024-03-07T06:21:33;98266.25;;;11.60;55.39
12973;BME280;6551;51.056;9.466;2024-03-07T06:24:00;98266.69;;;11.57;55.47
12973;BME280;6551;51.056;9.466;2024-03-07T06:26:33;98279.78;;;11.65;55.76
12973;BME280;6551;51.056;9.466;2024-03-07T06:29:18;98263.38;;;11.61;55.72
12973;BME280;6551;51.056;9.466;2024-03-07T06:31:46;98268.69;;;11.61;55.82
12973;BME280;6551;51.056;9.466;2024-03-07T06:34:12;98266.25;;;11.60;55.67
12973;BME280;6551;51.056;9.466;2024-03-07T06:36:38;98261.75;;;11.54;55.72
12973;BME280;6551;51.056;9.466;2024-03-07T06:39:06;98273.84;;;11.56;55.86
12973;BME280;6551;51.056;9.466;2024-03-07T06:41:36;98272.44;;;11.54;55.87
12973;BME280;6551;51.056;9.466;2024-03-07T06:44:05;98276.28;;;11.58;55.74
12973;BME280;6551;51.056;9.466;2024-03-07T06:46:31;98270.41;;;11.43;55.52
12973;BME280;6551;51.056;9.466;2024-03-07T06:48:57;98278.44;;;11.30;55.52
12973;BME280;6551;51.056;9.466;2024-03-07T06:51:23;98276.56;;;11.30;56.22
12973;BME280;6551;51.056;9.466;2024-03-07T06:53:53;98278.59;;;11.41;55.83
12973;BME280;6551;51.056;9.466;2024-03-07T06:56:20;98271.00;;;11.45;55.75
12973;BME280;6551;51.056;9.466;2024-03-07T06:58:47;98264.47;;;11.41;55.70
12973;BME280;6551;51.056;9.466;2024-03-07T07:01:15;98272.66;;;11.46;56.17
12973;BME280;6551;51.056;9.466;2024-03-07T07:03:41;98269.75;;;11.47;56.08
12973;BME280;6551;51.056;9.466;2024-03-07T07:06:10;98269.59;;;11.42;56.37
12973;BME280;6551;51.056;9.466;2024-03-07T07:08:36;98269.81;;;11.34;56.52
12973;BME280;6551;51.056;9.466;2024-03-07T07:11:02;98274.72;;;11.44;56.72
12973;BME280;6551;51.056;9.466;2024-03-07T07:13:30;98278.16;;;11.57;56.72
12973;BME280;6551;51.056;9.466;2024-03-07T07:15:56;98278.16;;;11.70;56.78
12973;BME280;6551;51.056;9.466;2024-03-07T07:18:22;98269.50;;;11.68;56.49
12973;BME280;6551;51.056;9.466;2024-03-07T07:20:49;98275.25;;;11.72;56.55
12973;BME280;6551;51.056;9.466;2024-03-07T07:23:18;98267.47;;;11.64;56.64
12973;BME280;6551;51.056;9.466;2024-03-07T07:25:45;98278.53;;;11.67;56.83
12973;BME280;6551;51.056;9.466;2024-03-07T07:28:12;98278.53;;;11.61;56.93
12973;BME280;6551;51.056;9.466;2024-03-07T07:30:38;98282.03;;;11.74;56.92
12973;BME280;6551;51.056;9.466;2024-03-07T07:33:04;98273.00;;;11.69;56.93
12973;BME280;6551;51.056;9.466;2024-03-07T07:35:30;98278.53;;;11.61;56.83
12973;BME280;6551;51.056;9.466;2024-03-07T07:37:58;98277.28;;;11.83;57.06
12973;BME280;6551;51.056;9.466;2024-03-07T07:40:25;98274.66;;;11.77;56.75
12973;BME280;6551;51.056;9.466;2024-03-07T07:42:54;98268.41;;;11.96;56.97
12973;BME280;6551;51.056;9.466;2024-03-07T07:45:24;98272.50;;;11.98;56.62
12973;BME280;6551;51.056;9.466;2024-03-07T07:47:52;98276.34;;;12.02;56.51
12973;BME280;6551;51.056;9.466;2024-03-07T07:50:20;98276.34;;;12.02;56.79
12973;BME280;6551;51.056;9.466;2024-03-07T07:52:57;98270.56;;;12.18;56.49
12973;BME280;6551;51.056;9.466;2024-03-07T07:55:30;98268.88;;;12.24;56.85
12973;BME280;6551;51.056;9.466;2024-03-07T07:57:59;98266.31;;;12.36;56.88
12973;BME280;6551;51.056;9.466;2024-03-07T08:00:27;98263.41;;;12.44;56.77
12973;BME280;6551;51.056;9.466;2024-03-07T08:03:05;98260.69;;;12.50;56.51
12973;BME280;6551;51.056;9.466;2024-03-07T08:05:36;98262.34;;;12.51;56.59
12973;BME280;6551;51.056;9.466;2024-03-07T08:08:07;98265.72;;;12.65;56.40
12973;BME280;6551;51.056;9.466;2024-03-07T08:10:35;98267.44;;;12.53;56.75
12973;BME280;6551;51.056;9.466;2024-03-07T08:13:03;98266.03;;;12.50;56.72
12973;BME280;6551;51.056;9.466;2024-03-07T08:15:30;98260.25;;;12.53;56.68
12973;BME280;6551;51.056;9.466;2024-03-07T08:17:57;98261.78;;;12.67;56.62
12973;BME280;6551;51.056;9.466;2024-03-07T08:20:25;98265.34;;;12.61;56.84
12973;BME280;6551;51.056;9.466;2024-03-07T08:22:53;98263.25;;;12.63;56.75
12973;BME280;6551;51.056;9.466;2024-03-07T08:25:22;98260.78;;;12.68;56.72
12973;BME280;6551;51.056;9.466;2024-03-07T08:27:54;98261.13;;;12.72;56.50
12973;BME280;6551;51.056;9.466;2024-03-07T08:30:21;98257.81;;;12.76;56.56
12973;BME280;6551;51.056;9.466;2024-03-07T08:32:53;98259.94;;;12.68;56.86
12973;BME280;6551;51.056;9.466;2024-03-07T08:35:20;98257.47;;;12.66;56.47
12973;BME280;6551;51.056;9.466;2024-03-07T08:37:51;98259.44;;;12.53;57.05
12973;BME280;6551;51.056;9.466;2024-03-07T08:40:23;98269.66;;;12.62;57.15
12973;BME280;6551;51.056;9.466;2024-03-07T08:42:53;98267.53;;;12.71;57.50
12973;BME280;6551;51.056;9.466;2024-03-07T08:45:22;98265.72;;;12.65;57.55
12973;BME280;6551;51.056;9.466;2024-03-07T08:47:53;98264.44;;;12.74;57.60
12973;BME280;6551;51.056;9.466;2024-03-07T08:50:23;98271.22;;;12.70;57.92
12973;BME280;6551;51.056;9.466;2024-03-07T08:52:50;98260.28;;;12.47;58.18
12973;BME280;6551;51.056;9.466;2024-03-07T08:55:17;98264.19;;;12.51;58.52
12973;BME280;6551;51.056;9.466;2024-03-07T08:57:46;98254.72;;;12.55;58.33
12973;BME280;6551;51.056;9.466;2024-03-07T09:00:17;98257.19;;;12.50;58.79
12973;BME280;6551;51.056;9.466;2024-03-07T09:03:01;98266.41;;;12.54;58.38
12973;BME280;6551;51.056;9.466;2024-03-07T09:05:30;98257.53;;;12.60;58.56
12973;BME280;6551;51.056;9.466;2024-03-07T09:07:59;98257.84;;;12.45;58.85
12973;BME280;6551;51.056;9.466;2024-03-07T09:10:26;98259.66;;;12.51;59.18
12973;BME280;6551;51.056;9.466;2024-03-07T09:12:56;98256.22;;;12.69;59.13
12973;BME280;6551;51.056;9.466;2024-03-07T09:15:23;98254.38;;;12.69;59.12
12973;BME280;6551;51.056;9.466;2024-03-07T09:17:51;98252.41;;;12.58;59.24
12973;BME280;6551;51.056;9.466;2024-03-07T09:20:17;98255.72;;;12.54;59.54
12973;BME280;6551;51.056;9.466;2024-03-07T09:22:45;98256.69;;;12.66;59.66
12973;BME280;6551;51.056;9.466;2024-03-07T09:25:15;98255.84;;;12.65;60.25
12973;BME280;6551;51.056;9.466;2024-03-07T09:27:43;98245.53;;;12.69;60.21
12973;BME280;6551;51.056;9.466;2024-03-07T09:30:12;98250.72;;;12.64;59.85
12973;BME280;6551;51.056;9.466;2024-03-07T09:32:42;98247.25;;;12.32;60.49
12973;BME280;6551;51.056;9.466;2024-03-07T09:35:09;98252.94;;;12.42;60.33
12973;BME280;6551;51.056;9.466;2024-03-07T09:37:40;98246.00;;;12.66;60.07
12973;BME280;6551;51.056;9.466;2024-03-07T09:40:07;98253.66;;;12.56;60.06
12973;BME280;6551;51.056;9.466;2024-03-07T09:42:43;98255.06;;;12.58;60.19
12973;BME280;6551;51.056;9.466;2024-03-07T09:45:18;98253.75;;;12.74;59.78
12973;BME280;6551;51.056;9.466;2024-03-07T09:47:48;98254.53;;;12.74;59.83
12973;BME280;6551;51.056;9.466;2024-03-07T09:50:20;98249.00;;;12.76;59.70
12973;BME280;6551;51.056;9.466;2024-03-07T09:52:49;98247.34;;;12.75;59.75
12973;BME280;6551;51.056;9.466;2024-03-07T09:55:17;98252.25;;;12.78;59.80
12973;BME280;6551;51.056;9.466;2024-03-07T09:57:48;98239.84;;;12.65;60.04
12973;BME280;6551;51.056;9.466;2024-03-07T10:00:20;98246.03;;;12.84;59.62
12973;BME280;6551;51.056;9.466;2024-03-07T10:03:07;98249.13;;;13.06;59.56
12973;BME280;6551;51.056;9.466;2024-03-07T10:05:33;98256.97;;;13.07;59.36
12973;BME280;6551;51.056;9.466;2024-03-07T10:08:00;98249.78;;;13.08;59.35
12973;BME280;6551;51.056;9.466;2024-03-07T10:10:26;98254.88;;;12.84;59.82
12973;BME280;6551;51.056;9.466;2024-03-07T10:12:52;98248.13;;;12.82;59.65
12973;BME280;6551;51.056;9.466;2024-03-07T10:15:31;98251.50;;;12.96;59.48
12973;BME280;6551;51.056;9.466;2024-03-07T10:17:57;98252.75;;;12.44;59.80
12973;BME280;6551;51.056;9.466;2024-03-07T10:20:24;98244.63;;;12.57;60.07
12973;BME280;6551;51.056;9.466;2024-03-07T10:22:50;98253.28;;;12.21;60.47
12973;BME280;6551;51.056;9.466;2024-03-07T10:25:20;98244.44;;;12.20;60.56
12973;BME280;6551;51.056;9.466;2024-03-07T10:27:51;98243.75;;;13.12;59.25
12973;BME280;6551;51.056;9.466;2024-03-07T10:30:17;98238.06;;;13.45;58.44
12973;BME280;6551;51.056;9.466;2024-03-07T10:32:47;98232.28;;;13.30;57.82
12973;BME280;6551;51.056;9.466;2024-03-07T10:35:14;98225.81;;;13.37;57.74
12973;BME280;6551;51.056;9.466;2024-03-07T10:37:40;98232.09;;;13.25;57.47
12973;BME280;6551;51.056;9.466;2024-03-07T10:40:07;98239.25;;;13.13;57.75
12973;BME280;6551;51.056;9.466;2024-03-07T10:42:48;98234.72;;;13.49;57.81
12973;BME280;6551;51.056;9.466;2024-03-07T10:45:21;98227.53;;;13.68;57.00
12973;BME280;6551;51.056;9.466;2024-03-07T10:47:54;98225.09;;;13.96;56.86
12973;BME280;6551;51.056;9.466;2024-03-07T10:51:16;98220.44;;;14.63;56.21
12973;BME280;6551;51.056;9.466;2024-03-07T10:57:32;98220.22;;;16.87;50.81
12973;BME280;6551;51.056;9.466;2024-03-07T11:00:05;98214.50;;;17.00;48.14
12973;BME280;6551;51.056;9.466;2024-03-07T11:02:50;98209.34;;;17.15;46.96
12973;BME280;6551;51.056;9.466;2024-03-07T11:05:19;98208.56;;;16.98;48.21
12973;BME280;6551;51.056;9.466;2024-03-07T11:07:46;98205.00;;;16.31;48.16
12973;BME280;6551;51.056;9.466;2024-03-07T11:10:13;98196.44;;;16.79;48.49
12973;BME280;6551;51.056;9.466;2024-03-07T11:12:44;98193.16;;;17.10;47.33
12973;BME280;6551;51.056;9.466;2024-03-07T11:15:12;98191.34;;;17.16;46.25
12973;BME280;6551;51.056;9.466;2024-03-07T11:17:49;98173.06;;;16.34;46.56
12973;BME280;6551;51.056;9.466;2024-03-07T11:22:48;98191.63;;;15.40;47.39
12973;BME280;6551;51.056;9.466;2024-03-07T11:25:18;98191.06;;;15.38;47.51
12973;BME280;6551;51.056;9.466;2024-03-07T11:27:58;98189.06;;;15.56;47.23
12973;BME280;6551;51.056;9.466;2024-03-07T11:30:25;98179.41;;;15.32;47.43
12973;BME280;6551;51.056;9.466;2024-03-07T11:32:53;98179.59;;;15.42;47.97
12973;BME280;6551;51.056;9.466;2024-03-07T11:35:32;98181.00;;;15.45;48.06
12973;BME280;6551;51.056;9.466;2024-03-07T11:38:01;98168.28;;;15.40;47.95
12973;BME280;6551;51.056;9.466;2024-03-07T11:42:56;98164.88;;;14.93;47.05
12973;BME280;6551;51.056;9.466;2024-03-07T11:45:26;98167.41;;;15.11;47.00
12973;BME280;6551;51.056;9.466;2024-03-07T11:47:58;98161.63;;;15.43;47.24
12973;BME280;6551;51.056;9.466;2024-03-07T11:50:33;98164.31;;;15.54;45.86
12973;BME280;6551;51.056;9.466;2024-03-07T11:53:02;98159.53;;;15.45;46.02
12973;BME280;6551;51.056;9.466;2024-03-07T11:55:28;98160.16;;;15.23;44.36
12973;BME280;6551;51.056;9.466;2024-03-07T11:57:56;98147.06;;;15.27;44.96
12973;BME280;6551;51.056;9.466;2024-03-07T12:00:25;98149.44;;;15.23;45.04
12973;BME280;6551;51.056;9.466;2024-03-07T12:02:54;98139.09;;;15.84;45.09
12973;BME280;6551;51.056;9.466;2024-03-07T12:05:21;98136.75;;;16.32;44.40
12973;BME280;6551;51.056;9.466;2024-03-07T12:07:47;98124.84;;;16.28;43.36
12973;BME280;6551;51.056;9.466;2024-03-07T12:10:16;98122.75;;;16.63;42.35
12973;BME280;6551;51.056;9.466;2024-03-07T12:12:51;98119.28;;;16.63;43.25
12973;BME280;6551;51.056;9.466;2024-03-07T12:15:17;98119.00;;;16.31;43.23
12973;BME280;6551;51.056;9.466;2024-03-07T12:17:47;98125.25;;;15.75;44.07
12973;BME280;6551;51.056;9.466;2024-03-07T12:20:17;98126.72;;;14.91;45.70
12973;BME280;6551;51.056;9.466;2024-03-07T12:23:01;98116.94;;;14.50;45.36
12973;BME280;6551;51.056;9.466;2024-03-07T12:25:29;98120.38;;;14.28;46.05
12973;BME280;6551;51.056;9.466;2024-03-07T12:28:08;98121.94;;;14.47;45.74
12973;BME280;6551;51.056;9.466;2024-03-07T12:33:12;98111.66;;;14.21;45.01
12973;BME280;6551;51.056;9.466;2024-03-07T12:35:53;98110.31;;;14.53;45.31
12973;BME280;6551;51.056;9.466;2024-03-07T12:38:26;98104.59;;;14.96;44.35
12973;BME280;6551;51.056;9.466;2024-03-07T12:41:04;98094.09;;;15.74;43.59
12973;BME280;6551;51.056;9.466;2024-03-07T12:43:32;98090.38;;;15.92;42.81
12973;BME280;6551;51.056;9.466;2024-03-07T12:45:59;98092.03;;;16.09;42.65
12973;BME280;6551;51.056;9.466;2024-03-07T12:48:25;98089.50;;;15.18;43.02
12973;BME280;6551;51.056;9.466;2024-03-07T12:50:52;98095.81;;;15.00;43.45
12973;BME280;6551;51.056;9.466;2024-03-07T12:53:24;98092.88;;;15.13;43.73
12973;BME280;6551;51.056;9.466;2024-03-07T12:55:55;98087.19;;;14.98;43.50
12973;BME280;6551;51.056;9.466;2024-03-07T12:58:23;98088.13;;;14.92;43.54
12973;BME280;6551;51.056;9.466;2024-03-07T13:00:55;98085.72;;;14.68;43.96
12973;BME280;6551;51.056;9.466;2024-03-07T13:03:24;98089.22;;;14.68;43.93
12973;BME280;6551;51.056;9.466;2024-03-07T13:05:57;98090.34;;;14.26;44.12
12973;BME280;6551;51.056;9.466;2024-03-07T13:08:27;98088.47;;;14.26;44.05
12973;BME280;6551;51.056;9.466;2024-03-07T13:10:55;98086.59;;;14.15;43.25
12973;BME280;6551;51.056;9.466;2024-03-07T13:13:21;98093.44;;;13.99;43.46
12973;BME280;6551;51.056;9.466;2024-03-07T13:15:48;98088.38;;;14.21;44.04
12973;BME280;6551;51.056;9.466;2024-03-07T13:18:13;98098.00;;;13.99;44.64
12973;BME280;6551;51.056;9.466;2024-03-07T13:20:40;98090.22;;;14.21;44.66
12973;BME280;6551;51.056;9.466;2024-03-07T13:23:08;98081.13;;;14.10;44.94
12973;BME280;6551;51.056;9.466;2024-03-07T13:25:35;98083.94;;;14.15;44.41
12973;BME280;6551;51.056;9.466;2024-03-07T13:28:13;98083.41;;;14.59;43.88
12973;BME280;6551;51.056;9.466;2024-03-07T13:30:43;98075.81;;;14.68;43.89